createdAt,value
2023-05-09T00:00:53.525Z,3773.00
2023-05-09T00:01:53.620Z,3768.00
2023-05-09T00:02:53.681Z,3789.00
2023-05-09T00:03:53.769Z,3802.00
2023-05-09T00:04:53.825Z,3717.00
2023-05-09T00:05:53.790Z,3739.00
2023-05-09T00:06:53.906Z,3796.00
2023-05-09T00:07:53.909Z,3847.00
2023-05-09T00:08:53.960Z,3892.00
2023-05-09T00:09:54.037Z,3876.00
2023-05-09T00:10:54.099Z,3894.00
2023-05-09T00:11:54.158Z,3911.00
2023-05-09T00:12:54.220Z,3780.00
2023-05-09T00:13:54.240Z,3765.00
2023-05-09T00:14:54.305Z,3826.00
2023-05-09T00:15:54.388Z,3825.00
2023-05-09T00:16:54.440Z,3791.00
2023-05-09T00:17:54.573Z,3786.00
2023-05-09T00:18:54.567Z,3828.00
2023-05-09T00:19:54.551Z,3705.00
2023-05-09T00:20:54.615Z,3500.00
2023-05-09T00:21:54.662Z,3470.00
2023-05-09T00:22:54.762Z,3531.00
2023-05-09T00:23:54.765Z,3430.00
2023-05-09T00:24:54.802Z,3597.00
2023-05-09T00:25:54.850Z,3540.00
2023-05-09T00:26:54.921Z,3444.00
2023-05-09T00:27:54.953Z,3451.00
2023-05-09T00:28:55.039Z,3569.00
2023-05-09T00:29:55.123Z,3350.00
2023-05-09T00:30:55.131Z,3291.00
2023-05-09T00:31:55.333Z,3354.00
2023-05-09T00:32:55.266Z,3435.00
2023-05-09T00:33:55.308Z,3576.00
2023-05-09T00:34:55.412Z,3483.00
2023-05-09T00:35:55.449Z,3463.00
2023-05-09T00:36:55.542Z,3509.00
2023-05-09T00:37:55.581Z,3458.00
2023-05-09T00:38:55.709Z,3542.00
2023-05-09T00:39:55.729Z,3549.00
2023-05-09T00:40:55.761Z,3582.00
2023-05-09T00:41:55.832Z,3637.00
2023-05-09T00:42:55.894Z,3603.00
2023-05-09T00:43:55.952Z,3615.00
2023-05-09T00:44:56.048Z,3674.00
2023-05-09T00:45:56.063Z,3723.00
2023-05-09T00:46:56.114Z,3582.00
2023-05-09T00:47:56.263Z,3532.00
2023-05-09T00:48:56.230Z,3460.00
2023-05-09T00:49:56.313Z,3385.00
2023-05-09T00:50:56.375Z,3399.00
2023-05-09T00:51:56.398Z,3528.00
2023-05-09T00:52:56.488Z,3460.00
2023-05-09T00:53:56.528Z,3461.00
2023-05-09T00:54:56.684Z,3524.00
2023-05-09T00:55:56.661Z,3480.00
2023-05-09T00:56:56.760Z,3544.00
2023-05-09T00:57:56.777Z,3495.00
2023-05-09T00:58:56.976Z,3354.00
2023-05-09T00:59:56.813Z,3268.00
2023-05-09T01:00:56.833Z,3278.00
2023-05-09T01:01:56.828Z,3337.00
2023-05-09T01:02:56.932Z,3379.00
2023-05-09T01:03:56.953Z,3396.00
2023-05-09T01:04:56.967Z,3411.00
2023-05-09T01:05:57.032Z,3539.00
2023-05-09T01:06:57.073Z,3645.00
2023-05-09T01:07:57.131Z,3646.00
2023-05-09T01:08:57.247Z,3646.00
2023-05-09T01:09:57.257Z,3657.00
2023-05-09T01:10:57.377Z,3660.00
2023-05-09T01:11:57.415Z,3596.00
2023-05-09T01:12:57.530Z,3481.00
2023-05-09T01:13:57.520Z,3434.00
2023-05-09T01:14:57.592Z,3436.00
2023-05-09T01:15:57.675Z,3341.00
2023-05-09T01:16:57.652Z,3365.00
2023-05-09T01:17:57.795Z,3402.00
2023-05-09T01:18:57.776Z,3466.00
2023-05-09T01:19:57.885Z,3535.00
2023-05-09T01:20:57.949Z,3421.00
2023-05-09T01:21:57.959Z,3399.00
2023-05-09T01:22:57.989Z,3459.00
2023-05-09T01:23:58.082Z,3390.00
2023-05-09T01:24:58.177Z,3507.00
2023-05-09T01:25:58.218Z,3534.00
2023-05-09T01:26:58.326Z,3556.00
2023-05-09T01:27:58.295Z,3542.00
2023-05-09T01:28:58.344Z,3553.00
2023-05-09T01:29:58.423Z,3555.00
2023-05-09T01:30:58.501Z,3548.00
2023-05-09T01:31:58.539Z,3536.00
2023-05-09T01:32:58.601Z,3558.00
2023-05-09T01:33:58.640Z,3557.00
2023-05-09T01:34:58.843Z,3561.00
2023-05-09T01:35:58.759Z,3581.00
2023-05-09T01:36:58.816Z,3631.00
2023-05-09T01:37:58.964Z,3596.00
2023-05-09T01:38:58.932Z,3572.00
2023-05-09T01:39:59.030Z,3547.00
2023-05-09T01:40:59.084Z,3477.00
2023-05-09T01:41:59.155Z,3445.00
2023-05-09T01:42:59.283Z,3503.00
2023-05-09T01:43:59.321Z,3494.00
2023-05-09T01:44:59.326Z,3320.00
2023-05-09T01:45:59.357Z,3247.00
2023-05-09T01:46:59.486Z,3252.00
2023-05-09T01:47:59.472Z,3298.00
2023-05-09T01:48:59.502Z,3384.00
2023-05-09T01:49:59.586Z,3462.00
2023-05-09T01:50:59.637Z,3406.00
2023-05-09T01:51:59.663Z,3349.00
2023-05-09T01:52:59.721Z,3343.00
2023-05-09T01:53:59.796Z,3348.00
2023-05-09T01:54:59.847Z,3427.00
2023-05-09T01:55:59.870Z,3491.00
2023-05-09T01:56:59.912Z,3404.00
2023-05-09T01:57:59.949Z,3279.00
2023-05-09T01:59:00.133Z,3299.00
2023-05-09T02:00:00.173Z,3320.00
2023-05-09T02:01:00.251Z,3385.00
2023-05-09T02:02:00.309Z,3441.00
2023-05-09T02:03:00.350Z,3497.00
2023-05-09T02:04:00.284Z,3519.00
2023-05-09T02:05:00.404Z,3523.00
2023-05-09T02:06:00.387Z,3563.00
2023-05-09T02:07:00.474Z,3608.00
2023-05-09T02:08:00.598Z,3580.00
2023-05-09T02:09:00.555Z,3596.00
2023-05-09T02:10:00.622Z,3577.00
2023-05-09T02:11:00.681Z,3611.00
2023-05-09T02:12:00.734Z,3586.00
2023-05-09T02:13:00.817Z,3616.00
2023-05-09T02:14:00.848Z,3696.00
2023-05-09T02:15:01.003Z,3736.00
2023-05-09T02:16:00.945Z,3683.00
2023-05-09T02:17:01.054Z,3657.00
2023-05-09T02:18:01.221Z,3622.00
2023-05-09T02:19:01.127Z,3590.00
2023-05-09T02:20:01.201Z,3628.00
2023-05-09T02:21:01.353Z,3594.00
2023-05-09T02:22:01.293Z,3606.00
2023-05-09T02:23:01.349Z,3645.00
2023-05-09T02:24:01.455Z,3636.00
2023-05-09T02:25:01.481Z,3595.00
2023-05-09T02:26:01.474Z,3639.00
2023-05-09T02:27:01.570Z,3624.00
2023-05-09T02:28:01.625Z,3634.00
2023-05-09T02:29:01.643Z,3602.00
2023-05-09T02:30:01.697Z,3663.00
2023-05-09T02:31:01.843Z,3638.00
2023-05-09T02:32:01.868Z,3661.00
2023-05-09T02:33:01.904Z,3624.00
2023-05-09T02:34:01.951Z,3611.00
2023-05-09T02:35:01.997Z,3681.00
2023-05-09T02:36:02.017Z,3686.00
2023-05-09T02:37:02.086Z,3635.00
2023-05-09T02:38:02.200Z,3541.00
2023-05-09T02:39:02.231Z,3551.00
2023-05-09T02:40:02.281Z,3571.00
2023-05-09T02:41:02.304Z,3643.00
2023-05-09T02:42:02.359Z,3785.00
2023-05-09T02:43:02.393Z,3877.00
2023-05-09T02:44:02.461Z,3771.00
2023-05-09T02:45:02.546Z,3763.00
2023-05-09T02:46:02.664Z,3604.00
2023-05-09T02:47:02.691Z,3660.00
2023-05-09T02:48:02.728Z,3737.00
2023-05-09T02:49:02.746Z,3701.00
2023-05-09T02:50:02.827Z,3705.00
2023-05-09T02:51:02.886Z,3693.00
2023-05-09T02:52:02.902Z,3606.00
2023-05-09T02:53:02.946Z,3627.00
2023-05-09T02:54:03.010Z,3639.00
2023-05-09T02:55:03.112Z,3690.00
2023-05-09T02:56:03.111Z,3744.00
2023-05-09T02:57:03.177Z,3827.00
2023-05-09T02:58:12.546Z,3872.00
2023-05-09T02:59:04.232Z,3869.00
2023-05-09T03:00:03.231Z,3854.00
2023-05-09T03:01:03.331Z,3873.00
2023-05-09T03:02:03.230Z,3903.00
2023-05-09T03:03:03.373Z,3950.00
2023-05-09T03:04:03.175Z,3875.00
2023-05-09T03:05:03.205Z,3812.00
2023-05-09T03:06:03.209Z,3694.00
2023-05-09T03:07:03.234Z,3644.00
2023-05-09T03:08:03.299Z,3673.00
2023-05-09T03:09:03.364Z,3704.00
2023-05-09T03:10:03.444Z,3738.00
2023-05-09T03:11:03.503Z,3817.00
2023-05-09T03:12:03.543Z,3848.00
2023-05-09T03:13:03.595Z,3865.00
2023-05-09T03:14:03.677Z,3890.00
2023-05-09T03:15:03.679Z,3728.00
2023-05-09T03:16:03.891Z,3692.00
2023-05-09T03:17:03.834Z,3747.00
2023-05-09T03:18:03.864Z,3785.00
2023-05-09T03:19:03.960Z,3612.00
2023-05-09T03:20:04.506Z,3595.00
2023-05-09T03:21:04.059Z,3563.00
2023-05-09T03:22:04.039Z,3496.00
2023-05-09T03:23:04.149Z,3509.00
2023-05-09T03:24:04.153Z,3485.00
2023-05-09T03:25:04.262Z,3509.00
2023-05-09T03:26:04.296Z,3610.00
2023-05-09T03:27:04.367Z,3708.00
2023-05-09T03:28:04.429Z,3624.00
2023-05-09T03:29:04.510Z,3515.00
2023-05-09T03:30:04.542Z,3554.00
2023-05-09T03:31:04.661Z,3494.00
2023-05-09T03:32:04.638Z,3457.00
2023-05-09T03:33:04.769Z,3455.00
2023-05-09T03:34:04.719Z,3474.00
2023-05-09T03:35:04.843Z,3638.00
2023-05-09T03:36:04.878Z,3702.00
2023-05-09T03:37:04.891Z,3758.00
2023-05-09T03:38:04.952Z,3820.00
2023-05-09T03:39:05.010Z,3797.00
2023-05-09T03:40:05.035Z,3753.00
2023-05-09T03:41:05.096Z,3760.00
2023-05-09T03:42:05.107Z,3596.00
2023-05-09T03:43:05.160Z,3635.00
2023-05-09T03:44:05.206Z,3637.00
2023-05-09T03:45:05.263Z,3595.00
2023-05-09T03:46:05.317Z,3482.00
2023-05-09T03:47:05.397Z,3488.00
2023-05-09T03:48:05.363Z,3326.00
2023-05-09T03:49:05.287Z,3365.00
2023-05-09T03:50:05.314Z,3292.00
2023-05-09T03:51:05.394Z,3176.00
2023-05-09T03:52:05.308Z,3069.00
2023-05-09T03:53:05.297Z,3076.00
2023-05-09T03:54:05.324Z,3138.00
2023-05-09T03:55:05.353Z,3100.00
2023-05-09T03:56:05.337Z,3177.00
2023-05-09T03:57:05.315Z,3222.00
2023-05-09T03:58:05.332Z,3241.00
2023-05-09T03:59:05.310Z,3251.00
2023-05-09T04:00:05.362Z,3335.00
2023-05-09T04:01:05.390Z,3465.00
2023-05-09T04:02:05.418Z,3595.00
2023-05-09T04:03:05.432Z,3670.00
2023-05-09T04:04:05.464Z,3739.00
2023-05-09T04:05:05.368Z,3839.00
2023-05-09T04:06:05.389Z,3883.00
2023-05-09T04:07:05.482Z,3896.00
2023-05-09T04:08:05.455Z,3934.00
2023-05-09T04:09:05.498Z,3997.00
2023-05-09T04:10:05.574Z,3945.00
2023-05-09T04:11:05.608Z,3886.00
2023-05-09T04:12:05.634Z,3920.00
2023-05-09T04:13:05.805Z,3934.00
2023-05-09T04:14:05.719Z,3923.00
2023-05-09T04:15:05.731Z,3833.00
2023-05-09T04:16:05.796Z,3880.00
2023-05-09T04:17:05.809Z,3997.00
2023-05-09T04:18:05.871Z,4017.00
2023-05-09T04:19:05.852Z,3936.00
2023-05-09T04:20:05.862Z,3874.00
2023-05-09T04:21:05.901Z,3889.00
2023-05-09T04:22:05.853Z,3949.00
2023-05-09T04:23:05.930Z,3961.00
2023-05-09T04:24:05.864Z,3998.00
2023-05-09T04:25:05.834Z,4064.00
2023-05-09T04:26:05.925Z,4131.00
2023-05-09T04:27:05.890Z,4151.00
2023-05-09T04:28:05.991Z,4143.00
2023-05-09T04:29:05.997Z,4121.00
2023-05-09T04:30:06.059Z,4140.00
2023-05-09T04:31:06.206Z,4244.00
2023-05-09T04:32:06.253Z,4308.00
2023-05-09T04:33:06.240Z,4179.00
2023-05-09T04:34:06.305Z,4092.00
2023-05-09T04:35:06.305Z,4156.00
2023-05-09T04:36:06.376Z,4076.00
2023-05-09T04:37:06.484Z,4062.00
2023-05-09T04:38:06.470Z,4089.00
2023-05-09T04:39:06.614Z,4149.00
2023-05-09T04:40:06.608Z,4225.00
2023-05-09T04:41:06.666Z,4195.00
2023-05-09T04:42:06.739Z,4176.00
2023-05-09T04:43:06.747Z,4226.00
2023-05-09T04:44:06.821Z,4229.00
2023-05-09T04:45:06.875Z,4226.00
2023-05-09T04:46:06.943Z,4254.00
2023-05-09T04:47:06.933Z,4333.00
2023-05-09T04:48:07.075Z,4395.00
2023-05-09T04:49:07.014Z,4455.00
2023-05-09T04:50:07.029Z,4451.00
2023-05-09T04:51:07.086Z,4369.00
2023-05-09T04:52:07.043Z,4353.00
2023-05-09T04:53:07.109Z,4238.00
2023-05-09T04:54:07.103Z,4180.00
2023-05-09T04:55:07.173Z,4231.00
2023-05-09T04:56:07.191Z,4248.00
2023-05-09T04:57:17.254Z,4290.00
2023-05-09T04:58:08.122Z,4293.00
2023-05-09T04:59:07.148Z,4310.00
2023-05-09T05:00:07.115Z,4352.00
2023-05-09T05:02:26.514Z,500.00
2023-05-09T05:03:26.804Z,500.00
2023-05-09T05:04:26.530Z,500.00
2023-05-09T05:05:26.594Z,500.00
2023-05-09T05:06:26.456Z,500.00
2023-05-09T05:07:26.481Z,500.00
2023-05-09T05:08:26.498Z,501.00
2023-05-09T05:09:26.790Z,497.00
2023-05-09T05:10:26.513Z,468.00
2023-05-09T05:11:26.503Z,496.00
2023-05-09T05:12:26.462Z,512.00
2023-05-09T05:13:26.452Z,533.00
2023-05-09T05:14:27.071Z,529.00
2023-05-09T05:15:26.445Z,526.00
2023-05-09T05:16:26.863Z,542.00
2023-05-09T05:17:26.529Z,549.00
2023-05-09T05:18:26.766Z,540.00
2023-05-09T05:19:26.375Z,541.00
2023-05-09T05:20:26.375Z,580.00
2023-05-09T05:21:26.427Z,627.00
2023-05-09T05:22:26.774Z,632.00
2023-05-09T05:23:26.347Z,605.00
2023-05-09T05:24:26.561Z,609.00
2023-05-09T05:25:26.350Z,646.00
2023-05-09T05:26:26.548Z,694.00
2023-05-09T05:27:26.375Z,661.00
2023-05-09T05:28:26.321Z,635.00
2023-05-09T05:29:26.374Z,603.00
2023-05-09T05:30:26.421Z,622.00
2023-05-09T05:31:27.040Z,637.00
2023-05-09T05:32:26.906Z,641.00
2023-05-09T05:33:26.307Z,641.00
2023-05-09T05:34:26.404Z,658.00
2023-05-09T05:35:26.401Z,644.00
2023-05-09T05:36:27.122Z,653.00
2023-05-09T05:37:26.300Z,726.00
2023-05-09T05:38:26.422Z,804.00
2023-05-09T05:39:26.418Z,766.00
2023-05-09T05:40:26.423Z,644.00
2023-05-09T05:41:26.337Z,622.00
2023-05-09T05:42:27.074Z,609.00
2023-05-09T05:43:26.261Z,593.00
2023-05-09T05:44:26.323Z,553.00
2023-05-09T05:45:26.259Z,523.00
2023-05-09T05:47:45.973Z,500.00
2023-05-09T05:48:45.954Z,500.00
2023-05-09T05:49:45.944Z,500.00
2023-05-09T05:50:46.049Z,500.00
2023-05-09T05:51:46.274Z,500.00
2023-05-09T05:52:45.931Z,497.00
2023-05-09T05:53:45.908Z,499.00
2023-05-09T05:54:45.917Z,506.00
2023-05-09T05:55:45.926Z,510.00
2023-05-09T05:56:45.891Z,510.00
2023-05-09T05:57:46.844Z,528.00
2023-05-09T05:58:45.913Z,542.00
2023-05-09T05:59:45.915Z,491.00
2023-05-09T06:00:45.866Z,498.00
2023-05-09T06:01:45.873Z,497.00
2023-05-09T06:02:45.930Z,516.00
2023-05-09T06:03:45.908Z,561.00
2023-05-09T06:04:45.834Z,616.00
2023-05-09T06:05:46.734Z,608.00
2023-05-09T06:06:48.077Z,596.00
2023-05-09T06:07:46.284Z,587.00
2023-05-09T06:08:45.771Z,635.00
2023-05-09T06:09:45.848Z,657.00
2023-05-09T06:10:45.785Z,769.00
2023-05-09T06:11:45.797Z,877.00
2023-05-09T06:12:45.822Z,946.00
2023-05-09T06:13:45.830Z,996.00
2023-05-09T06:14:45.770Z,1025.00
2023-05-09T06:15:45.801Z,969.00
2023-05-09T06:16:45.775Z,972.00
2023-05-09T06:17:45.789Z,896.00
2023-05-09T06:18:45.744Z,839.00
2023-05-09T06:19:45.759Z,884.00
2023-05-09T06:20:45.813Z,916.00
2023-05-09T06:21:45.713Z,990.00
2023-05-09T06:22:45.733Z,993.00
2023-05-09T06:24:01.422Z,947.00
2023-05-09T06:24:46.694Z,949.00
2023-05-09T06:25:45.683Z,951.00
2023-05-09T06:26:46.273Z,914.00
2023-05-09T06:27:45.694Z,824.00
2023-05-09T06:28:45.715Z,759.00
2023-05-09T06:29:45.718Z,659.00
2023-05-09T06:30:45.665Z,636.00
2023-05-09T06:31:45.705Z,645.00
2023-05-09T06:32:45.711Z,609.00
2023-05-09T06:33:45.657Z,616.00
2023-05-09T06:34:45.701Z,635.00
2023-05-09T06:35:45.618Z,616.00
2023-05-09T06:36:45.621Z,578.00
2023-05-09T06:37:48.248Z,526.00
2023-05-09T06:38:45.604Z,497.00
2023-05-09T06:39:45.626Z,513.00
2023-05-09T06:40:45.596Z,532.00
2023-05-09T06:41:45.605Z,576.00
2023-05-09T06:42:46.432Z,650.00
2023-05-09T06:43:45.612Z,684.00
2023-05-09T06:44:45.670Z,742.00
2023-05-09T06:45:45.649Z,731.00
2023-05-09T06:46:45.790Z,693.00
2023-05-09T06:47:45.903Z,645.00
2023-05-09T06:48:45.545Z,597.00
2023-05-09T06:49:45.537Z,573.00
2023-05-09T06:50:45.511Z,583.00
2023-05-09T06:51:45.534Z,594.00
2023-05-09T06:52:45.785Z,563.00
2023-05-09T06:53:45.521Z,570.00
2023-05-09T06:54:45.496Z,612.00
2023-05-09T06:55:45.496Z,686.00
2023-05-09T06:56:45.520Z,721.00
2023-05-09T06:57:45.567Z,630.00
2023-05-09T06:58:45.463Z,616.00
2023-05-09T06:59:45.463Z,574.00
2023-05-09T07:00:45.475Z,539.00
2023-05-09T07:01:45.585Z,539.00
2023-05-09T07:02:45.811Z,555.00
2023-05-09T07:03:45.475Z,573.00
2023-05-09T07:04:45.477Z,592.00
2023-05-09T07:05:45.412Z,558.00
2023-05-09T07:06:45.473Z,500.00
2023-05-09T07:07:45.416Z,500.00
2023-05-09T07:08:45.804Z,562.00
2023-05-09T07:09:45.385Z,548.00
2023-05-09T07:10:45.418Z,530.00
2023-05-09T07:11:45.442Z,487.00
2023-05-09T07:12:45.477Z,505.00
2023-05-09T07:13:45.788Z,501.00
2023-05-09T07:14:45.480Z,561.00
2023-05-09T07:15:45.635Z,569.00
2023-05-09T07:16:45.599Z,595.00
2023-05-09T07:17:45.701Z,594.00
2023-05-09T07:18:45.695Z,553.00
2023-05-09T07:19:45.709Z,561.00
2023-05-09T07:20:45.722Z,596.00
2023-05-09T07:21:45.746Z,568.00
2023-05-09T07:22:45.888Z,578.00
2023-05-09T07:23:45.797Z,548.00
2023-05-09T07:24:45.844Z,522.00
2023-05-09T07:25:45.966Z,583.00
2023-05-09T07:26:45.946Z,624.00
2023-05-09T07:27:45.930Z,653.00
2023-05-09T07:28:46.282Z,656.00
2023-05-09T07:29:45.980Z,590.00
2023-05-09T07:30:45.993Z,578.00
2023-05-09T07:31:46.166Z,555.00
2023-05-09T07:32:46.070Z,546.00
2023-05-09T07:33:46.408Z,557.00
2023-05-09T07:34:46.089Z,566.00
2023-05-09T07:35:46.101Z,586.00
2023-05-09T07:36:46.122Z,531.00
2023-05-09T07:37:46.138Z,543.00
2023-05-09T07:38:46.350Z,572.00
2023-05-09T07:39:46.146Z,500.00
2023-05-09T07:40:46.268Z,522.00
2023-05-09T07:41:48.555Z,534.00
2023-05-09T07:42:46.196Z,559.00
2023-05-09T07:43:46.289Z,551.00
2023-05-09T07:44:46.192Z,531.00
2023-05-09T07:45:46.130Z,564.00
2023-05-09T07:46:46.094Z,647.00
2023-05-09T07:47:46.192Z,647.00
2023-05-09T07:48:46.318Z,642.00
2023-05-09T07:49:46.126Z,679.00
2023-05-09T07:50:46.116Z,672.00
2023-05-09T07:51:46.095Z,755.00
2023-05-09T07:52:46.026Z,804.00
2023-05-09T07:53:46.064Z,585.00
2023-05-09T07:54:46.073Z,534.00
2023-05-09T07:55:46.050Z,524.00
2023-05-09T07:56:46.005Z,514.00
2023-05-09T07:57:46.031Z,531.00
2023-05-09T07:58:46.371Z,533.00
2023-05-09T07:59:46.074Z,500.00
2023-05-09T08:00:46.005Z,520.00
2023-05-09T08:01:46.085Z,500.00
2023-05-09T08:02:46.089Z,544.00
2023-05-09T08:03:46.061Z,521.00
2023-05-09T08:04:46.678Z,533.00
2023-05-09T08:05:46.862Z,576.00
2023-05-09T08:06:46.021Z,617.00
2023-05-09T08:07:46.085Z,612.00
2023-05-09T08:08:45.979Z,629.00
2023-05-09T08:09:45.951Z,584.00
2023-05-09T08:10:46.029Z,627.00
2023-05-09T08:11:45.957Z,657.00
2023-05-09T08:12:45.973Z,618.00
2023-05-09T08:13:46.284Z,574.00
2023-05-09T08:14:45.979Z,511.00
2023-05-09T08:15:46.027Z,520.00
2023-05-09T08:16:46.005Z,513.00
2023-05-09T08:17:45.982Z,567.00
2023-05-09T08:18:46.039Z,582.00
2023-05-09T08:19:45.937Z,577.00
2023-05-09T08:20:45.903Z,548.00
2023-05-09T08:21:45.979Z,500.00
2023-05-09T08:22:45.894Z,491.00
2023-05-09T08:23:46.436Z,507.00
2023-05-09T08:24:45.849Z,547.00
2023-05-09T08:25:45.875Z,495.00
2023-05-09T08:26:45.850Z,490.00
2023-05-09T08:27:45.853Z,479.00
2023-05-09T08:28:45.878Z,506.00
2023-05-09T08:29:46.413Z,504.00
2023-05-09T08:30:45.882Z,500.00
2023-05-09T08:31:45.928Z,488.00
2023-05-09T08:32:46.598Z,508.00
2023-05-09T08:33:46.427Z,528.00
2023-05-09T08:34:45.807Z,503.00
2023-05-09T08:35:45.835Z,501.00
2023-05-09T08:36:45.810Z,464.00
2023-05-09T08:37:45.849Z,401.00
2023-05-09T08:38:45.839Z,400.00
2023-05-09T08:39:45.881Z,415.00
2023-05-09T08:40:45.754Z,563.00
2023-05-09T08:41:45.763Z,629.00
2023-05-09T08:42:45.806Z,656.00
2023-05-09T08:43:45.818Z,933.00
2023-05-09T08:44:45.870Z,1041.00
2023-05-09T08:45:45.798Z,1160.00
2023-05-09T08:46:45.847Z,1136.00
2023-05-09T08:47:45.846Z,1214.00
2023-05-09T08:48:45.923Z,1379.00
2023-05-09T08:49:46.449Z,1416.00
2023-05-09T08:50:46.017Z,969.00
2023-05-09T08:51:46.066Z,999.00
2023-05-09T08:52:46.061Z,753.00
2023-05-09T08:53:46.154Z,785.00
2023-05-09T08:54:46.352Z,870.00
2023-05-09T08:55:46.277Z,744.00
2023-05-09T08:56:46.192Z,654.00
2023-05-09T08:57:46.372Z,582.00
2023-05-09T08:58:46.371Z,611.00
2023-05-09T08:59:46.400Z,707.00
2023-05-09T09:00:46.444Z,726.00
2023-05-09T09:01:46.484Z,547.00
2023-05-09T09:02:46.571Z,615.00
2023-05-09T09:03:46.532Z,517.00
2023-05-09T09:04:46.607Z,497.00
2023-05-09T09:05:46.618Z,500.00
2023-05-09T09:06:46.539Z,506.00
2023-05-09T09:07:46.553Z,519.00
2023-05-09T09:08:46.561Z,534.00
2023-05-09T09:09:46.635Z,548.00
2023-05-09T09:10:46.574Z,500.00
2023-05-09T09:11:46.580Z,500.00
2023-05-09T09:12:48.690Z,558.00
2023-05-09T09:13:46.516Z,557.00
2023-05-09T09:14:46.851Z,416.00
2023-05-09T09:15:46.602Z,472.00
2023-05-09T09:16:46.572Z,483.00
2023-05-09T09:17:46.609Z,513.00
2023-05-09T09:18:46.537Z,501.00
2023-05-09T09:19:46.529Z,509.00
2023-05-09T09:20:47.614Z,565.00
2023-05-09T09:21:46.565Z,400.00
2023-05-09T09:22:46.553Z,400.00
2023-05-09T09:23:46.467Z,489.00
2023-05-09T09:24:46.982Z,504.00
2023-05-09T09:25:46.513Z,431.00
2023-05-09T09:26:46.485Z,424.00
2023-05-09T09:27:46.553Z,442.00
2023-05-09T09:28:46.442Z,507.00
2023-05-09T09:29:46.840Z,545.00
2023-05-09T09:30:46.405Z,569.00
2023-05-09T09:31:46.517Z,640.00
2023-05-09T09:32:46.481Z,876.00
2023-05-09T09:33:46.442Z,826.00
2023-05-09T09:34:46.434Z,855.00
2023-05-09T09:35:46.429Z,637.00
2023-05-09T09:36:46.447Z,502.00
2023-05-09T09:37:46.437Z,459.00
2023-05-09T09:38:46.403Z,465.00
2023-05-09T09:39:46.409Z,542.00
2023-05-09T09:40:46.878Z,511.00
2023-05-09T09:41:46.409Z,443.00
2023-05-09T09:42:46.315Z,593.00
2023-05-09T09:43:46.333Z,789.00
2023-05-09T09:44:46.333Z,1069.00
2023-05-09T09:45:46.359Z,870.00
2023-05-09T09:46:46.389Z,781.00
2023-05-09T09:47:46.339Z,1009.00
2023-05-09T09:48:46.332Z,727.00
2023-05-09T09:49:46.440Z,518.00
2023-05-09T09:50:46.283Z,591.00
2023-05-09T09:51:46.352Z,677.00
2023-05-09T09:52:46.353Z,500.00
2023-05-09T09:53:46.295Z,536.00
2023-05-09T09:54:46.374Z,595.00
2023-05-09T09:55:46.565Z,525.00
2023-05-09T09:56:46.601Z,650.00
2023-05-09T09:57:46.708Z,615.00
2023-05-09T09:58:46.633Z,620.00
2023-05-09T09:59:46.649Z,569.00
2023-05-09T10:00:46.740Z,593.00
2023-05-09T10:01:46.737Z,746.00
2023-05-09T10:02:46.757Z,618.00
2023-05-09T10:03:46.760Z,547.00
2023-05-09T10:04:46.762Z,729.00
2023-05-09T10:05:46.789Z,659.00
2023-05-09T10:06:46.789Z,608.00
2023-05-09T10:07:46.765Z,491.00
2023-05-09T10:08:46.865Z,562.00
2023-05-09T10:09:46.890Z,573.00
2023-05-09T10:10:47.408Z,617.00
2023-05-09T10:11:46.885Z,535.00
2023-05-09T10:12:46.944Z,590.00
2023-05-09T10:13:47.043Z,647.00
2023-05-09T10:14:47.027Z,706.00
2023-05-09T10:15:53.488Z,590.00
2023-05-09T10:16:48.135Z,497.00
2023-05-09T10:17:47.126Z,527.00
2023-05-09T10:18:47.153Z,504.00
2023-05-09T10:19:46.975Z,581.00
2023-05-09T10:20:47.101Z,614.00
2023-05-09T10:21:46.970Z,465.00
2023-05-09T10:22:46.958Z,445.00
2023-05-09T10:23:46.987Z,450.00
2023-05-09T10:24:46.964Z,521.00
2023-05-09T10:25:46.978Z,538.00
2023-05-09T10:26:46.934Z,541.00
2023-05-09T10:27:46.982Z,540.00
2023-05-09T10:28:47.012Z,490.00
2023-05-09T10:29:47.094Z,532.00
2023-05-09T10:30:47.134Z,605.00
2023-05-09T10:31:47.233Z,494.00
2023-05-09T10:32:47.198Z,497.00
2023-05-09T10:33:47.167Z,540.00
2023-05-09T10:34:47.149Z,506.00
2023-05-09T10:35:47.381Z,500.00
2023-05-09T10:36:47.272Z,526.00
2023-05-09T10:37:47.319Z,523.00
2023-05-09T10:38:47.313Z,621.00
2023-05-09T10:39:47.333Z,695.00
2023-05-09T10:40:47.853Z,831.00
2023-05-09T10:41:48.122Z,676.00
2023-05-09T10:42:47.463Z,976.00
2023-05-09T10:43:47.528Z,1044.00
2023-05-09T10:44:47.536Z,900.00
2023-05-09T10:45:47.596Z,815.00
2023-05-09T10:46:47.680Z,924.00
2023-05-09T10:47:47.621Z,550.00
2023-05-09T10:48:47.684Z,466.00
2023-05-09T10:49:47.684Z,602.00
2023-05-09T10:50:47.769Z,620.00
2023-05-09T10:51:47.792Z,608.00
2023-05-09T10:52:47.904Z,502.00
2023-05-09T10:53:47.949Z,628.00
2023-05-09T10:54:47.887Z,818.00
2023-05-09T10:55:47.958Z,754.00
2023-05-09T10:56:48.011Z,724.00
2023-05-09T10:57:48.137Z,713.00
2023-05-09T10:58:48.111Z,656.00
2023-05-09T10:59:48.108Z,623.00
2023-05-09T11:00:48.146Z,649.00
2023-05-09T11:01:48.257Z,617.00
2023-05-09T11:02:48.356Z,605.00
2023-05-09T11:03:48.393Z,595.00
2023-05-09T11:04:48.833Z,547.00
2023-05-09T11:05:49.435Z,439.00
2023-05-09T11:06:48.395Z,449.00
2023-05-09T11:07:48.428Z,502.00
2023-05-09T11:08:48.443Z,569.00
2023-05-09T11:09:48.574Z,515.00
2023-05-09T11:10:48.645Z,493.00
2023-05-09T11:11:48.656Z,531.00
2023-05-09T11:12:48.732Z,579.00
2023-05-09T11:13:48.756Z,431.00
2023-05-09T11:14:48.791Z,484.00
2023-05-09T11:15:48.928Z,512.00
2023-05-09T11:16:48.852Z,657.00
2023-05-09T11:17:48.950Z,549.00
2023-05-09T11:18:48.889Z,602.00
2023-05-09T11:19:48.958Z,530.00
2023-05-09T11:20:49.098Z,400.00
2023-05-09T11:21:49.025Z,434.00
2023-05-09T11:22:49.110Z,533.00
2023-05-09T11:23:49.137Z,464.00
2023-05-09T11:24:49.160Z,498.00
2023-05-09T11:25:49.394Z,499.00
2023-05-09T11:26:49.164Z,554.00
2023-05-09T11:27:49.271Z,499.00
2023-05-09T11:28:49.277Z,580.00
2023-05-09T11:29:49.307Z,508.00
2023-05-09T11:30:49.443Z,822.00
2023-05-09T11:31:49.476Z,907.00
2023-05-09T11:32:49.466Z,609.00
2023-05-09T11:33:49.529Z,588.00
2023-05-09T11:34:49.571Z,827.00
2023-05-09T11:35:49.888Z,581.00
2023-05-09T11:36:49.536Z,462.00
2023-05-09T11:37:49.542Z,420.00
2023-05-09T11:38:49.593Z,560.00
2023-05-09T11:39:49.688Z,421.00
2023-05-09T11:40:49.994Z,401.00
2023-05-09T11:41:49.772Z,641.00
2023-05-09T11:42:49.773Z,608.00
2023-05-09T11:43:49.712Z,531.00
2023-05-09T11:44:49.745Z,658.00
2023-05-09T11:45:49.949Z,916.00
2023-05-09T11:46:49.916Z,583.00
2023-05-09T11:47:49.958Z,650.00
2023-05-09T11:48:49.893Z,611.00
2023-05-09T11:49:49.994Z,515.00
2023-05-09T11:50:49.953Z,651.00
2023-05-09T11:51:49.931Z,583.00
2023-05-09T11:52:50.054Z,793.00
2023-05-09T11:53:50.076Z,661.00
2023-05-09T11:54:50.054Z,697.00
2023-05-09T11:55:50.168Z,538.00
2023-05-09T11:56:50.178Z,513.00
2023-05-09T11:57:50.216Z,519.00
2023-05-09T11:58:50.226Z,520.00
2023-05-09T11:59:50.304Z,1035.00
2023-05-09T12:00:50.262Z,625.00
2023-05-09T12:01:50.324Z,709.00
2023-05-09T12:02:50.434Z,697.00
2023-05-09T12:03:50.566Z,539.00
2023-05-09T12:04:50.449Z,554.00
2023-05-09T12:05:50.605Z,513.00
2023-05-09T12:06:50.552Z,728.00
2023-05-09T12:07:50.567Z,489.00
2023-05-09T12:08:50.498Z,400.00
2023-05-09T12:09:50.582Z,652.00
2023-05-09T12:10:50.587Z,651.00
2023-05-09T12:11:50.698Z,512.00
2023-05-09T12:12:50.817Z,561.00
2023-05-09T12:13:50.649Z,479.00
2023-05-09T12:14:50.711Z,508.00
2023-05-09T12:15:50.843Z,455.00
2023-05-09T12:16:50.739Z,410.00
2023-05-09T12:17:52.089Z,425.00
2023-05-09T12:18:50.844Z,681.00
2023-05-09T12:19:50.952Z,765.00
2023-05-09T12:20:50.962Z,589.00
2023-05-09T12:21:51.129Z,929.00